createdAt,value
2017-12-21T00:00:28.792Z,7.30
2017-12-21T00:02:56.337Z,7.40
2017-12-21T00:05:23.970Z,7.40
2017-12-21T00:07:51.434Z,7.40
2017-12-21T00:10:18.883Z,7.40
2017-12-21T00:12:46.334Z,7.40
2017-12-21T00:15:13.773Z,7.40
2017-12-21T00:17:41.210Z,7.40
2017-12-21T00:20:08.665Z,7.40
2017-12-21T00:22:41.033Z,7.30
2017-12-21T00:25:08.801Z,7.20
2017-12-21T00:27:36.240Z,7.20
2017-12-21T00:30:03.677Z,7.20
2017-12-21T00:32:31.124Z,7.20
2017-12-21T00:34:58.609Z,7.20
2017-12-21T00:37:26.572Z,7.10
2017-12-21T00:39:54.187Z,7.10
2017-12-21T00:42:21.632Z,7.10
2017-12-21T00:44:49.144Z,7.20
2017-12-21T00:47:16.662Z,7.20
2017-12-21T00:49:44.435Z,7.30
2017-12-21T00:52:11.881Z,7.30
2017-12-21T00:54:39.371Z,7.30
2017-12-21T00:57:06.870Z,7.30
2017-12-21T00:59:34.567Z,7.30
2017-12-21T01:02:02.032Z,7.20
2017-12-21T01:04:29.521Z,7.20
2017-12-21T01:06:57.066Z,7.20
2017-12-21T01:09:24.524Z,7.20
2017-12-21T01:11:52.413Z,7.20
2017-12-21T01:14:20.252Z,7.20
2017-12-21T01:16:47.703Z,7.20
2017-12-21T01:19:15.496Z,7.20
2017-12-21T01:21:42.950Z,7.10
2017-12-21T01:24:10.405Z,7.20
2017-12-21T01:26:37.881Z,7.20
2017-12-21T01:29:05.312Z,7.20
2017-12-21T01:31:33.001Z,7.20
2017-12-21T01:34:00.680Z,7.30
2017-12-21T01:36:28.117Z,7.30
2017-12-21T01:38:55.577Z,7.40
2017-12-21T01:41:23.533Z,7.40
2017-12-21T01:43:50.967Z,7.40
2017-12-21T01:46:18.417Z,7.50
2017-12-21T01:48:46.172Z,7.50
2017-12-21T01:51:28.496Z,7.50
2017-12-21T01:53:55.956Z,7.50
2017-12-21T01:56:23.499Z,7.50
2017-12-21T01:58:50.952Z,7.50
2017-12-21T02:01:18.435Z,7.40
2017-12-21T02:03:46.082Z,7.40
2017-12-21T02:06:28.231Z,7.40
2017-12-21T02:08:55.868Z,7.40
2017-12-21T02:11:23.311Z,7.40
2017-12-21T02:13:51.002Z,7.40
2017-12-21T02:16:18.449Z,7.40
2017-12-21T02:18:45.897Z,7.40
2017-12-21T02:21:16.692Z,7.40
2017-12-21T02:23:44.174Z,7.40
2017-12-21T02:26:11.630Z,7.40
2017-12-21T02:28:39.085Z,7.40
2017-12-21T02:31:06.544Z,7.40
2017-12-21T02:33:34.372Z,7.40
2017-12-21T02:36:01.816Z,7.40
2017-12-21T02:38:29.262Z,7.40
2017-12-21T02:40:56.711Z,7.40
2017-12-21T02:43:24.149Z,7.50
2017-12-21T02:45:51.596Z,7.50
2017-12-21T02:48:19.037Z,7.50
2017-12-21T02:50:46.480Z,7.50
2017-12-21T02:53:13.951Z,7.50
2017-12-21T02:55:41.417Z,7.50
2017-12-21T02:58:08.895Z,7.50
2017-12-21T03:00:36.653Z,7.50
2017-12-21T03:03:04.110Z,7.50
2017-12-21T03:05:31.565Z,7.50
2017-12-21T03:07:59.014Z,7.50
2017-12-21T03:10:26.477Z,7.50
2017-12-21T03:12:54.151Z,7.50
2017-12-21T03:15:21.607Z,7.50
2017-12-21T03:17:49.048Z,7.50
2017-12-21T03:20:16.481Z,7.60
2017-12-21T03:22:44.496Z,7.60
2017-12-21T03:25:11.931Z,7.60
2017-12-21T03:27:39.360Z,7.60
2017-12-21T03:30:06.813Z,7.50
2017-12-21T03:32:34.239Z,7.50
2017-12-21T03:35:02.313Z,7.50
2017-12-21T03:37:29.748Z,7.50
2017-12-21T03:39:57.358Z,7.40
2017-12-21T03:42:24.813Z,7.40
2017-12-21T03:44:52.293Z,7.50
2017-12-21T03:47:19.748Z,7.50
2017-12-21T03:49:47.198Z,7.50
2017-12-21T03:52:14.641Z,7.60
2017-12-21T03:54:42.111Z,7.50
2017-12-21T03:57:09.557Z,7.50
2017-12-21T03:59:37.014Z,7.60
2017-12-21T04:02:04.605Z,7.50
2017-12-21T04:04:32.057Z,7.50
2017-12-21T04:06:59.513Z,7.60
2017-12-21T04:09:26.965Z,7.60
2017-12-21T04:11:54.418Z,7.50
2017-12-21T04:14:21.868Z,7.50
2017-12-21T04:16:49.308Z,7.50
2017-12-21T04:19:16.779Z,7.50
2017-12-21T04:21:44.220Z,7.50
2017-12-21T04:24:11.995Z,7.50
2017-12-21T04:26:39.438Z,7.40
2017-12-21T04:29:06.885Z,7.40
2017-12-21T04:31:34.351Z,7.40
2017-12-21T04:34:01.806Z,7.40
2017-12-21T04:36:29.554Z,7.50
2017-12-21T04:38:57.028Z,7.50
2017-12-21T04:41:24.473Z,7.50
2017-12-21T04:43:51.957Z,7.60
2017-12-21T04:46:19.405Z,7.60
2017-12-21T04:48:46.870Z,7.60
2017-12-21T04:51:18.839Z,7.60
2017-12-21T04:53:46.292Z,7.70
2017-12-21T04:56:13.769Z,7.60
2017-12-21T04:58:41.217Z,7.60
2017-12-21T05:01:08.686Z,7.60
2017-12-21T05:03:36.143Z,7.60
2017-12-21T05:06:03.612Z,7.60
2017-12-21T05:08:31.064Z,7.60
2017-12-21T05:10:58.728Z,7.60
2017-12-21T05:13:26.186Z,7.60
2017-12-21T05:15:53.637Z,7.60
2017-12-21T05:18:21.074Z,7.60
2017-12-21T05:20:48.504Z,7.60
2017-12-21T05:23:15.944Z,7.60
2017-12-21T05:25:46.940Z,7.70
2017-12-21T05:28:14.320Z,7.70
2017-12-21T05:30:42.097Z,7.60
2017-12-21T05:33:09.546Z,7.60
2017-12-21T05:35:37.002Z,7.50
2017-12-21T05:38:04.787Z,7.50
2017-12-21T05:40:32.222Z,7.50
2017-12-21T05:42:59.671Z,7.50
2017-12-21T05:45:27.107Z,7.50
2017-12-21T05:47:54.556Z,7.50
2017-12-21T05:50:22.092Z,7.50
2017-12-21T05:52:49.534Z,7.60
2017-12-21T05:55:16.988Z,7.60
2017-12-21T05:57:44.425Z,7.60
2017-12-21T06:00:11.857Z,7.60
2017-12-21T06:02:39.314Z,7.60
2017-12-21T06:05:06.784Z,7.60
2017-12-21T06:07:34.679Z,7.60
2017-12-21T06:10:02.120Z,7.60
2017-12-21T06:12:29.574Z,7.60
2017-12-21T06:14:57.040Z,7.60
2017-12-21T06:17:24.986Z,7.60
2017-12-21T06:19:52.488Z,7.70
2017-12-21T06:22:19.969Z,7.70
2017-12-21T06:24:47.483Z,7.70
2017-12-21T06:27:14.948Z,7.70
2017-12-21T06:29:42.389Z,7.70
2017-12-21T06:32:09.847Z,7.70
2017-12-21T06:34:37.646Z,7.70
2017-12-21T06:37:05.096Z,7.70
2017-12-21T06:39:32.563Z,7.80
2017-12-21T06:42:00.129Z,7.80
2017-12-21T06:44:27.681Z,7.80
2017-12-21T06:46:55.152Z,7.80
2017-12-21T06:49:22.617Z,7.80
2017-12-21T06:51:50.275Z,7.80
2017-12-21T06:54:17.723Z,7.80
2017-12-21T06:56:45.493Z,7.90
2017-12-21T06:59:12.925Z,7.90
2017-12-21T07:01:40.412Z,7.90
2017-12-21T07:04:07.867Z,7.90
2017-12-21T07:06:35.308Z,7.90
2017-12-21T07:09:02.779Z,7.90
2017-12-21T07:11:30.213Z,7.80
2017-12-21T07:13:57.723Z,7.80
2017-12-21T07:16:25.201Z,7.80
2017-12-21T07:18:52.763Z,7.70
2017-12-21T07:21:21.334Z,7.70
2017-12-21T07:23:48.770Z,7.70
2017-12-21T07:26:17.003Z,7.70
2017-12-21T07:28:44.463Z,7.70
2017-12-21T07:31:11.905Z,7.80
2017-12-21T07:33:39.354Z,7.80
2017-12-21T07:36:07.557Z,7.80
2017-12-21T07:38:35.112Z,7.80
2017-12-21T07:41:02.577Z,7.80
2017-12-21T07:43:30.269Z,7.80
2017-12-21T07:45:57.731Z,7.80
2017-12-21T07:48:25.173Z,7.80
2017-12-21T07:50:52.620Z,7.80
2017-12-21T07:53:20.070Z,7.90
2017-12-21T07:55:47.513Z,7.90
2017-12-21T07:58:14.965Z,7.80
2017-12-21T08:00:42.477Z,7.80
2017-12-21T08:03:09.913Z,7.90
2017-12-21T08:05:37.373Z,7.90
2017-12-21T08:08:04.812Z,7.90
2017-12-21T08:10:32.516Z,7.90
2017-12-21T08:12:59.968Z,7.90
2017-12-21T08:15:27.409Z,7.90
2017-12-21T08:17:54.997Z,7.90
2017-12-21T08:20:22.437Z,7.90
2017-12-21T08:22:49.891Z,8.00
2017-12-21T08:25:17.385Z,7.90
2017-12-21T08:27:45.034Z,8.00
2017-12-21T08:30:12.705Z,8.10
2017-12-21T08:32:40.146Z,8.10
2017-12-21T08:35:07.597Z,8.00
2017-12-21T08:37:35.046Z,8.00
2017-12-21T08:40:03.267Z,8.00
2017-12-21T08:42:31.050Z,7.90
2017-12-21T08:44:58.599Z,7.90
2017-12-21T08:47:26.240Z,8.00
2017-12-21T08:49:53.683Z,8.00
2017-12-21T08:52:21.885Z,8.00
2017-12-21T08:54:49.427Z,8.00
2017-12-21T08:57:23.284Z,8.10
2017-12-21T08:59:50.718Z,8.00
2017-12-21T09:02:18.329Z,8.10
2017-12-21T09:04:45.801Z,8.10
2017-12-21T09:07:13.257Z,8.10
2017-12-21T09:09:47.276Z,8.00
2017-12-21T09:12:14.742Z,7.90
2017-12-21T09:14:42.286Z,8.00
2017-12-21T09:17:09.724Z,8.00
2017-12-21T09:19:37.174Z,8.00
2017-12-21T09:22:04.612Z,8.00
2017-12-21T09:24:32.457Z,8.10
2017-12-21T09:26:59.884Z,8.00
2017-12-21T09:29:27.770Z,8.10
2017-12-21T09:31:55.252Z,8.10
2017-12-21T09:34:22.758Z,8.00
2017-12-21T09:36:50.221Z,8.00
2017-12-21T09:39:18.063Z,8.10
2017-12-21T09:41:45.879Z,8.10
2017-12-21T09:44:13.371Z,8.10
2017-12-21T09:46:40.811Z,8.10
2017-12-21T09:49:08.253Z,8.20
2017-12-21T09:51:35.713Z,8.20
2017-12-21T09:54:03.150Z,8.30
2017-12-21T09:56:30.585Z,8.40
2017-12-21T09:58:58.158Z,8.40
2017-12-21T10:01:25.601Z,8.40
2017-12-21T10:03:53.867Z,8.40
2017-12-21T10:06:22.329Z,8.40
2017-12-21T10:08:49.853Z,8.40
2017-12-21T10:11:17.280Z,8.50
2017-12-21T10:13:44.740Z,8.50
2017-12-21T10:16:12.226Z,8.50
2017-12-21T10:18:39.666Z,8.50
2017-12-21T10:21:07.226Z,8.50
2017-12-21T10:23:34.690Z,8.50
2017-12-21T10:26:02.561Z,8.50
2017-12-21T10:28:30.434Z,8.50
2017-12-21T10:30:57.861Z,8.40
2017-12-21T10:33:25.456Z,8.40
2017-12-21T10:35:52.910Z,8.40
2017-12-21T10:38:20.811Z,8.50
2017-12-21T10:40:48.338Z,8.50
2017-12-21T10:43:15.794Z,8.60
2017-12-21T10:45:43.241Z,8.60
2017-12-21T10:48:10.894Z,8.70
2017-12-21T10:50:39.438Z,8.70
2017-12-21T10:53:06.878Z,8.60
2017-12-21T10:55:34.337Z,8.70
2017-12-21T10:58:01.777Z,8.70
2017-12-21T11:00:29.226Z,8.70
2017-12-21T11:02:56.657Z,8.80
2017-12-21T11:05:24.388Z,8.80
2017-12-21T11:07:51.886Z,8.70
2017-12-21T11:10:19.358Z,8.80
2017-12-21T11:12:46.785Z,8.80
2017-12-21T11:15:14.553Z,8.80
2017-12-21T11:17:42.025Z,8.90
2017-12-21T11:20:09.461Z,8.90
2017-12-21T11:22:36.909Z,8.80
2017-12-21T11:25:04.605Z,8.80
2017-12-21T11:27:32.373Z,8.80
2017-12-21T11:29:59.801Z,8.80
2017-12-21T11:32:27.297Z,8.80
2017-12-21T11:34:54.762Z,8.80
2017-12-21T11:37:22.205Z,8.80
2017-12-21T11:39:49.668Z,8.80
2017-12-21T11:42:17.096Z,8.80
2017-12-21T11:44:44.536Z,8.90
2017-12-21T11:47:11.981Z,8.90
2017-12-21T11:49:39.421Z,8.90
2017-12-21T11:52:07.037Z,8.90
2017-12-21T11:54:35.008Z,8.90
2017-12-21T11:57:02.434Z,8.90
2017-12-21T11:59:29.885Z,9.00
2017-12-21T12:01:57.438Z,9.00
2017-12-21T12:04:25.190Z,9.00
2017-12-21T12:06:52.647Z,9.10
2017-12-21T12:09:20.082Z,9.10
2017-12-21T12:11:47.533Z,9.10
2017-12-21T12:14:15.882Z,9.10
2017-12-21T12:16:43.313Z,9.10
2017-12-21T12:19:10.766Z,9.10
2017-12-21T12:21:38.205Z,9.20
2017-12-21T12:24:06.434Z,9.20
2017-12-21T12:26:34.057Z,9.10
2017-12-21T12:29:01.712Z,9.20
2017-12-21T12:31:29.427Z,9.30
2017-12-21T12:33:56.894Z,9.30
2017-12-21T12:36:24.346Z,9.30
2017-12-21T12:38:51.849Z,9.30
2017-12-21T12:41:27.045Z,9.30
2017-12-21T12:43:54.685Z,9.20
2017-12-21T12:46:22.309Z,9.30
2017-12-21T12:48:49.869Z,9.30
2017-12-21T12:51:18.897Z,9.30
2017-12-21T12:53:49.018Z,9.30
2017-12-21T12:56:16.500Z,9.30
2017-12-21T12:58:43.968Z,9.30
2017-12-21T13:01:11.890Z,9.30
2017-12-21T13:03:39.334Z,9.30
2017-12-21T13:06:06.770Z,9.30
2017-12-21T13:08:34.221Z,9.30
2017-12-21T13:11:01.659Z,9.30
2017-12-21T13:13:30.932Z,9.30
2017-12-21T13:15:58.361Z,9.30
2017-12-21T13:18:25.802Z,9.30
2017-12-21T13:20:53.270Z,9.20
2017-12-21T13:23:20.706Z,9.10
2017-12-21T13:25:48.162Z,9.10
2017-12-21T13:28:16.010Z,9.10
2017-12-21T13:30:43.506Z,9.10
2017-12-21T13:33:10.949Z,9.10
2017-12-21T13:35:38.381Z,9.20
2017-12-21T13:38:06.353Z,9.20
2017-12-21T13:40:33.791Z,9.30
2017-12-21T13:43:01.989Z,9.20
2017-12-21T13:45:29.722Z,9.20
2017-12-21T13:47:57.558Z,9.20
2017-12-21T13:50:25.098Z,9.20
2017-12-21T13:52:52.538Z,9.30
2017-12-21T13:55:19.963Z,9.30
2017-12-21T13:57:47.408Z,9.30
2017-12-21T14:00:14.849Z,9.30
2017-12-21T14:02:42.306Z,9.40
2017-12-21T14:05:09.740Z,9.40
2017-12-21T14:07:37.211Z,9.30
2017-12-21T14:10:04.682Z,9.30
2017-12-21T14:12:32.101Z,9.30
2017-12-21T14:14:59.551Z,9.20
2017-12-21T14:17:27.168Z,9.20
2017-12-21T14:19:54.589Z,9.10
2017-12-21T14:22:23.130Z,9.10
2017-12-21T14:24:50.609Z,9.00
2017-12-21T14:27:18.073Z,9.10
2017-12-21T14:29:45.524Z,9.10
2017-12-21T14:32:12.973Z,9.10
2017-12-21T14:34:40.425Z,9.10
2017-12-21T14:37:07.853Z,9.10
2017-12-21T14:39:36.061Z,9.10
2017-12-21T14:42:03.509Z,9.10
2017-12-21T14:44:31.323Z,9.10
2017-12-21T14:46:58.786Z,9.20
2017-12-21T14:49:27.033Z,9.20
2017-12-21T14:51:55.260Z,9.20
2017-12-21T14:54:22.705Z,9.10
2017-12-21T14:56:50.556Z,9.20
2017-12-21T14:59:18.023Z,9.20
2017-12-21T15:01:45.496Z,9.20
2017-12-21T15:04:12.945Z,9.20
2017-12-21T15:06:40.423Z,9.10
2017-12-21T15:09:07.858Z,9.10
2017-12-21T15:11:35.294Z,9.10
2017-12-21T15:14:02.769Z,9.10
2017-12-21T15:16:30.204Z,9.10
2017-12-21T15:18:57.722Z,9.10
2017-12-21T15:21:25.592Z,9.10
2017-12-21T15:23:53.147Z,9.10
2017-12-21T15:26:20.916Z,9.10
2017-12-21T15:28:48.365Z,9.10
2017-12-21T15:31:15.854Z,9.10
2017-12-21T15:33:43.300Z,9.20
2017-12-21T15:36:10.745Z,9.20
2017-12-21T15:38:38.194Z,9.10
2017-12-21T15:41:05.701Z,9.10
2017-12-21T15:43:33.162Z,9.20
2017-12-21T15:46:01.029Z,9.20
2017-12-21T15:48:28.476Z,9.10
2017-12-21T15:50:57.456Z,9.20
2017-12-21T15:53:25.271Z,9.20
2017-12-21T15:55:52.747Z,9.20
2017-12-21T15:58:20.278Z,9.10
2017-12-21T16:00:47.713Z,9.20
2017-12-21T16:03:15.158Z,9.20
2017-12-21T16:05:42.780Z,9.20
2017-12-21T16:08:10.232Z,9.20
2017-12-21T16:10:37.675Z,9.30
2017-12-21T16:13:05.129Z,9.30
2017-12-21T16:15:32.569Z,9.30
2017-12-21T16:18:00.001Z,9.30
2017-12-21T16:20:27.563Z,9.40
2017-12-21T16:22:55.118Z,9.40
2017-12-21T16:25:22.878Z,9.50
2017-12-21T16:27:50.325Z,9.50
2017-12-21T16:30:17.759Z,9.50
2017-12-21T16:32:45.214Z,9.50
2017-12-21T16:35:12.649Z,9.50
2017-12-21T16:37:40.097Z,9.50
2017-12-21T16:40:07.537Z,9.40
2017-12-21T16:42:34.973Z,9.40
2017-12-21T16:45:02.553Z,9.40
2017-12-21T16:47:29.999Z,9.50
2017-12-21T16:49:57.447Z,9.40
2017-12-21T16:52:24.895Z,9.40
2017-12-21T16:54:52.328Z,9.40
2017-12-21T16:57:19.784Z,9.40
2017-12-21T16:59:47.317Z,9.40
2017-12-21T17:02:15.005Z,9.30
2017-12-21T17:04:42.442Z,9.40
2017-12-21T17:07:09.889Z,9.40
2017-12-21T17:09:37.547Z,9.40
2017-12-21T17:12:04.981Z,9.40
2017-12-21T17:14:32.437Z,9.40
2017-12-21T17:16:59.970Z,9.40
2017-12-21T17:19:27.421Z,9.40
2017-12-21T17:21:54.900Z,9.30
2017-12-21T17:24:22.497Z,9.40
2017-12-21T17:26:49.873Z,9.40
2017-12-21T17:29:17.309Z,9.40
2017-12-21T17:31:44.872Z,9.40
2017-12-21T17:34:12.313Z,9.40
2017-12-21T17:36:39.756Z,9.40
2017-12-21T17:39:07.201Z,9.40
2017-12-21T17:41:34.640Z,9.40
2017-12-21T17:44:02.848Z,9.50
2017-12-21T17:46:30.308Z,9.40
2017-12-21T17:48:57.747Z,9.50
2017-12-21T17:51:25.206Z,9.50
2017-12-21T17:53:52.962Z,9.40
2017-12-21T17:56:20.390Z,9.40
2017-12-21T17:58:48.617Z,9.50
2017-12-21T18:01:16.826Z,9.50
2017-12-21T18:03:44.281Z,9.40
2017-12-21T18:06:12.062Z,9.50
2017-12-21T18:08:39.490Z,9.40
2017-12-21T18:11:06.949Z,9.50
2017-12-21T18:13:34.389Z,9.40
2017-12-21T18:16:02.600Z,9.40
2017-12-21T18:18:30.034Z,9.30
2017-12-21T18:20:58.464Z,9.40
2017-12-21T18:23:26.769Z,9.30
2017-12-21T18:25:54.216Z,9.40
2017-12-21T18:28:21.661Z,9.30
2017-12-21T18:30:49.149Z,9.30
2017-12-21T18:33:16.582Z,9.40
2017-12-21T18:35:44.044Z,9.40
2017-12-21T18:38:11.475Z,9.30
2017-12-21T18:40:39.014Z,9.30
2017-12-21T18:43:06.445Z,9.30
2017-12-21T18:45:33.894Z,9.30
2017-12-21T18:48:01.334Z,9.30
2017-12-21T18:50:28.827Z,9.30
2017-12-21T18:52:56.291Z,9.30
2017-12-21T18:55:23.762Z,9.30
2017-12-21T18:57:51.217Z,9.30
2017-12-21T19:00:18.686Z,9.30
2017-12-21T19:02:46.141Z,9.30
2017-12-21T19:05:13.619Z,9.30
2017-12-21T19:07:41.071Z,9.30
2017-12-21T19:10:08.534Z,9.40
2017-12-21T19:12:36.014Z,9.40
2017-12-21T19:15:03.445Z,9.40
2017-12-21T19:17:30.896Z,9.40
2017-12-21T19:19:58.338Z,9.40
2017-12-21T19:22:25.766Z,9.40
2017-12-21T19:24:53.222Z,9.40
2017-12-21T19:27:20.687Z,9.40
2017-12-21T19:29:48.132Z,9.30
2017-12-21T19:32:15.585Z,9.30
2017-12-21T19:34:43.039Z,9.30
2017-12-21T19:37:10.485Z,9.30
2017-12-21T19:39:37.914Z,9.40
2017-12-21T19:42:05.361Z,9.40
2017-12-21T19:44:32.819Z,9.40
2017-12-21T19:47:00.257Z,9.40
2017-12-21T19:49:27.863Z,9.40
2017-12-21T19:51:55.389Z,9.40
2017-12-21T19:54:22.840Z,9.40
2017-12-21T19:56:50.287Z,9.40
2017-12-21T19:59:17.725Z,9.40
2017-12-21T20:01:45.214Z,9.50
2017-12-21T20:04:12.695Z,9.40
2017-12-21T20:06:40.149Z,9.40
2017-12-21T20:09:07.605Z,9.40
2017-12-21T20:11:35.043Z,9.40
2017-12-21T20:14:02.502Z,9.40
2017-12-21T20:16:29.999Z,9.40
2017-12-21T20:18:57.442Z,9.40
2017-12-21T20:21:24.902Z,9.50
2017-12-21T20:23:52.382Z,9.50
2017-12-21T20:26:19.831Z,9.50
2017-12-21T20:28:48.136Z,9.40
2017-12-21T20:31:15.602Z,9.50
2017-12-21T20:33:43.047Z,9.40
2017-12-21T20:36:10.484Z,9.50
2017-12-21T20:38:37.982Z,9.40
2017-12-21T20:41:05.417Z,9.40
2017-12-21T20:43:32.886Z,9.30
2017-12-21T20:46:00.749Z,9.30
2017-12-21T20:48:28.186Z,9.30
2017-12-21T20:50:55.685Z,9.30
2017-12-21T20:53:23.541Z,9.30
2017-12-21T20:55:50.973Z,9.30
2017-12-21T20:58:18.468Z,9.30
2017-12-21T21:00:45.910Z,9.30
2017-12-21T21:03:13.350Z,9.30
2017-12-21T21:05:40.799Z,9.30
2017-12-21T21:08:08.250Z,9.30
2017-12-21T21:10:35.700Z,9.30
2017-12-21T21:13:03.205Z,9.20
2017-12-21T21:15:30.697Z,9.20
2017-12-21T21:17:58.176Z,9.20
2017-12-21T21:20:25.614Z,9.20
2017-12-21T21:22:53.068Z,9.20
2017-12-21T21:25:20.557Z,9.20
2017-12-21T21:27:48.018Z,9.20
2017-12-21T21:30:15.454Z,9.20
2017-12-21T21:32:42.905Z,9.20
2017-12-21T21:35:10.388Z,9.20
2017-12-21T21:37:37.821Z,9.20
2017-12-21T21:40:05.265Z,9.20
2017-12-21T21:42:32.723Z,9.20
2017-12-21T21:45:07.529Z,9.30
2017-12-21T21:47:34.970Z,9.20
2017-12-21T21:50:02.408Z,9.30
2017-12-21T21:52:29.866Z,9.30
2017-12-21T21:54:57.302Z,9.40
2017-12-21T21:57:24.852Z,9.40
2017-12-21T21:59:52.284Z,9.40
2017-12-21T22:02:19.844Z,9.40
2017-12-21T22:04:47.288Z,9.50
2017-12-21T22:07:14.732Z,9.50
2017-12-21T22:09:42.174Z,9.50
2017-12-21T22:12:09.613Z,9.50
2017-12-21T22:14:37.083Z,9.50
2017-12-21T22:17:04.554Z,9.50
2017-12-21T22:19:31.994Z,9.50
2017-12-21T22:21:59.441Z,9.50
2017-12-21T22:24:26.884Z,9.50
2017-12-21T22:26:54.306Z,9.50
2017-12-21T22:29:21.833Z,9.50
2017-12-21T22:31:49.277Z,9.50
2017-12-21T22:34:16.744Z,9.50
2017-12-21T22:36:44.708Z,9.50
2017-12-21T22:39:12.153Z,9.50
2017-12-21T22:41:39.601Z,9.50
2017-12-21T22:44:07.070Z,9.50
2017-12-21T22:46:34.582Z,9.40
2017-12-21T22:49:02.046Z,9.50
2017-12-21T22:51:29.474Z,9.50
2017-12-21T22:53:56.928Z,9.50
2017-12-21T22:56:24.364Z,9.50
2017-12-21T22:58:51.806Z,9.50
2017-12-21T23:01:19.240Z,9.50
2017-12-21T23:03:46.712Z,9.40
2017-12-21T23:06:14.262Z,9.40
2017-12-21T23:08:41.714Z,9.40
2017-12-21T23:11:09.251Z,9.30
2017-12-21T23:13:36.690Z,9.40
2017-12-21T23:16:04.136Z,9.40
2017-12-21T23:18:31.581Z,9.40
2017-12-21T23:20:59.044Z,9.40
2017-12-21T23:23:26.481Z,9.40
2017-12-21T23:25:53.937Z,9.50
2017-12-21T23:28:21.371Z,9.50
2017-12-21T23:30:48.797Z,9.50
2017-12-21T23:33:16.301Z,9.50
2017-12-21T23:35:43.744Z,9.50
2017-12-21T23:38:11.287Z,9.50
2017-12-21T23:40:38.737Z,9.50
2017-12-21T23:43:06.177Z,9.50
2017-12-21T23:45:33.636Z,9.50
2017-12-21T23:48:01.086Z,9.50
2017-12-21T23:50:28.526Z,9.50
2017-12-21T23:52:55.964Z,9.50
2017-12-21T23:55:23.408Z,9.50
2017-12-21T23:57:51.019Z,9.50
